Meath Environmental Platform

Observations for Trim Market St

Time AQI Temp °C Hum % Pres Pa CO μg/m³ H₂S μg/m³ NO μg/m³ NO₂ μg/m³ O₃ μg/m³ SO₂ μg/m³ PM1 μg/m³ PM2.5 μg/m³ PM10 μg/m³
Saturday 22 August 2026
19:33 3 20.9 44 65,282 0 0 1.19 14.31 70.14 0 1.43 4.8 6.75
19:32 3 21 44 65,270 0 0 1.19 21.7 64.02 0 2.14 6.37 8.31
19:31 3 21 44 65,280 0 0 1.26 13.13 77.36 0 1.43 5.85 7.53
19:28 3 21.1 44 65,341 0.02 0 1.2 24.1 59.12 0 2.14 6.39 9.09
19:26 3 21.2 44 65,354 0.02 0 1.08 15.38 76.8 0 2.85 7.44 9.09
19:24 3 21.2 43 65,384 0 0 1.22 14.39 79.53 0 2.14 6.4 9.1
19:23 3 21.3 43 65,374 0 0 1.26 17.01 69.65 0 2.85 6.93 9.1
19:22 3 21.3 43 65,388 0.05 0 1.24 23.47 62.75 0 2.14 5.89 7.53
19:21 3 21.3 43 65,406 0.06 0 1.27 31.84 54.46 0 2.14 5.89 6.74
19:19 3 21.4 43 65,402 0.02 0 1.28 27.12 63.88 0 2.14 5.38 6.74
19:18 3 21.4 43 65,394 0 0 1.28 19.8 66.53 0 2.14 6.95 10.68
19:16 3 21.5 43 65,394 0 0 1.33 19.77 63.36 0 2.14 6.43 8.31
19:13 3 21.5 42 65,406 0 0 1.41 40.4 53.52 0 2.14 6.46 11.48
19:04 3 21.6 42 65,421 0.02 0 1.2 25.89 68.14 0 2.85 6.5 9.12
19:03 3 21.6 41 65,414 0.11 0 1.2 32.55 60.17 0 2.14 5.99 7.53
19:02 3 21.6 41 65,435 0.01 0 1.21 19.97 63.69 0 1.43 7.57 9.92
19:01 3 21.6 41 65,433 0 0 1.17 27.86 59.42 0 2.85 7.05 8.32
19:00 3 21.6 41 65,435 0.01 0 1.25 16.24 65.19 0 2.14 6 6.73
18:59 3 21.7 41 65,462 0.03 0 1.25 15.1 64.04 0 2.14 7.57 9.12
18:58 3 21.6 41 65,468 0.07 0 1.27 18.68 70.33 0 2.14 5.47 7.53